Time;durP1;ratioP1;P1;durP2;ratioP2;P2;SDS_P1;SDS_P2;PMS_P1;PMS_P2;Temp;Humidity;BMP_temperature;BMP_pressure;BME280_temperature;BME280_humidity;BME280_pressure;Samples;Min_cycle;Max_cycle;Signal;HPM_P1;HPM_P2
2022/04/27 00:01:11;;;;;;;31.60;15.68;;;;;;;2.60;100.00;102302.06;4974036;28;20037;-75
2022/04/27 00:03:36;;;;;;;33.22;17.88;;;;;;;2.72;100.00;102308.19;4975351;28;20032;-74
2022/04/27 00:06:01;;;;;;;24.60;15.60;;;;;;;2.78;100.00;102304.19;4990630;28;20106;-74
2022/04/27 00:08:27;;;;;;;28.95;16.83;;;;;;;2.92;100.00;102305.72;4974813;28;25656;-74
2022/04/27 00:10:52;;;;;;;28.00;15.90;;;;;;;3.06;100.00;102303.59;4957590;28;20258;-74
2022/04/27 00:13:18;;;;;;;24.45;16.42;;;;;;;3.20;100.00;102305.13;4973980;28;20041;-74
2022/04/27 00:15:43;;;;;;;29.63;17.05;;;;;;;3.27;100.00;102300.13;4973304;28;20053;-73
2022/04/27 00:18:09;;;;;;;30.42;16.00;;;;;;;3.27;100.00;102300.97;4986200;28;20029;-73
2022/04/27 00:20:34;;;;;;;26.77;16.63;;;;;;;3.35;100.00;102308.28;4972775;28;20052;-73
2022/04/27 00:22:59;;;;;;;28.55;18.25;;;;;;;3.46;100.00;102300.22;4990941;28;20028;-73
2022/04/27 00:25:25;;;;;;;33.08;17.45;;;;;;;3.59;100.00;102305.38;4988491;28;20033;-73
2022/04/27 00:27:50;;;;;;;30.75;17.80;;;;;;;3.68;100.00;102301.91;4956963;28;20049;-74
2022/04/27 00:30:16;;;;;;;27.50;17.88;;;;;;;3.74;100.00;102303.19;4988794;28;20147;-73
2022/04/27 00:32:41;;;;;;;29.90;16.90;;;;;;;3.75;100.00;102296.88;4958185;28;20060;-73
2022/04/27 00:35:08;;;;;;;27.98;16.70;;;;;;;3.77;100.00;102298.44;4955669;28;20067;-73
2022/04/27 00:37:34;;;;;;;31.27;17.83;;;;;;;3.79;100.00;102307.16;4971357;28;20049;-74
2022/04/27 00:40:00;;;;;;;33.70;17.88;;;;;;;3.79;100.00;102298.31;4973991;28;20022;-74
2022/04/27 00:42:26;;;;;;;29.92;18.25;;;;;;;3.78;100.00;102297.47;4974796;28;20040;-74
2022/04/27 00:44:51;;;;;;;35.00;17.42;;;;;;;3.85;100.00;102305.78;4974915;28;20031;-74
2022/04/27 00:47:18;;;;;;;27.85;15.57;;;;;;;3.84;100.00;102298.75;4988846;28;20040;-74
2022/04/27 00:49:48;;;;;;;30.45;17.27;;;;;;;3.86;100.00;102306.63;4969145;28;20048;-74
2022/04/27 00:52:15;;;;;;;32.78;17.48;;;;;;;3.87;100.00;102311.84;4952896;28;20040;-75
2022/04/27 00:54:41;;;;;;;34.28;17.40;;;;;;;3.92;100.00;102306.94;4954406;28;20052;-74
2022/04/27 00:57:08;;;;;;;28.45;17.05;;;;;;;3.93;100.00;102308.63;4970816;28;20096;-74
2022/04/27 00:59:34;;;;;;;33.92;18.63;;;;;;;3.94;100.00;102299.66;4954297;28;20073;-74
2022/04/27 01:01:59;;;;;;;34.90;17.00;;;;;;;3.94;100.00;102310.31;4969393;28;20128;-74
2022/04/27 01:04:26;;;;;;;27.70;16.48;;;;;;;3.88;100.00;102297.50;4981853;28;23566;-73
2022/04/27 01:06:51;;;;;;;36.10;17.65;;;;;;;3.82;100.00;102303.38;4972728;28;20053;-74
2022/04/27 01:09:18;;;;;;;29.38;16.05;;;;;;;3.81;100.00;102307.84;4969173;28;20025;-74
2022/04/27 01:11:44;;;;;;;28.30;15.82;;;;;;;3.75;100.00;102305.72;4969112;28;20198;-74
2022/04/27 01:14:09;;;;;;;23.73;15.32;;;;;;;3.75;100.00;102304.88;4970366;28;20036;-74
2022/04/27 01:16:35;;;;;;;25.90;15.48;;;;;;;3.73;100.00;102305.03;4967324;28;20048;-74
2022/04/27 01:19:00;;;;;;;27.25;15.93;;;;;;;3.79;100.00;102308.97;4987604;28;20033;-74
2022/04/27 01:21:26;;;;;;;24.73;15.32;;;;;;;3.85;100.00;102307.59;4968985;28;20041;-73
2022/04/27 01:23:52;;;;;;;24.05;15.40;;;;;;;3.85;100.00;102311.09;4953325;28;20033;-74
2022/04/27 01:26:18;;;;;;;28.50;15.40;;;;;;;3.86;100.00;102315.47;4969755;28;20037;-74
2022/04/27 01:28:45;;;;;;;24.58;15.57;;;;;;;3.89;100.00;102323.19;4953164;28;20059;-74
2022/04/27 01:31:11;;;;;;;25.67;15.82;;;;;;;3.96;100.00;102321.69;4986525;28;20033;-74
2022/04/27 01:33:37;;;;;;;26.35;15.70;;;;;;;4.04;100.00;102321.88;4955473;28;20067;-74
2022/04/27 01:36:04;;;;;;;28.42;16.20;;;;;;;4.07;100.00;102331.41;4969749;28;20041;-74
2022/04/27 01:38:37;;;;;;;25.52;15.20;;;;;;;4.12;100.00;102320.34;4955157;28;20057;-74
2022/04/27 01:41:02;;;;;;;28.88;16.42;;;;;;;4.18;100.00;102334.00;4972468;28;20077;-74
2022/04/27 01:43:29;;;;;;;23.33;15.65;;;;;;;4.19;100.00;102337.50;4967669;28;20037;-74
2022/04/27 01:45:55;;;;;;;27.77;16.20;;;;;;;4.22;100.00;102329.25;4984202;28;20056;-74
2022/04/27 01:48:20;;;;;;;25.83;15.70;;;;;;;4.29;100.00;102333.06;4958023;28;20029;-74
2022/04/27 01:50:46;;;;;;;28.60;15.88;;;;;;;4.32;100.00;102322.13;4957177;28;20056;-76
2022/04/27 01:55:56;;;;;;;26.50;15.25;;;;;;;4.29;100.00;102335.72;4970028;28;20130;-75
2022/04/27 01:58:22;;;;;;;27.65;15.73;;;;;;;4.30;100.00;102338.25;4987613;28;20025;-76
2022/04/27 02:00:48;;;;;;;27.52;16.10;;;;;;;4.36;100.00;102341.38;4972195;28;20053;-76
2022/04/27 02:03:14;;;;;;;26.63;16.90;;;;;;;4.41;100.00;102339.13;4975386;28;21333;-76
2022/04/27 02:05:41;;;;;;;31.45;17.35;;;;;;;4.45;100.00;102344.03;4957399;28;20625;-74
2022/04/27 02:08:07;;;;;;;25.65;17.20;;;;;;;4.45;100.00;102344.03;4987062;28;20045;-75
2022/04/27 02:10:32;;;;;;;30.98;17.25;;;;;;;4.46;100.00;102343.09;4974223;28;20126;-76
2022/04/27 02:12:57;;;;;;;25.08;17.65;;;;;;;4.44;100.00;102342.38;4951012;28;20045;-75
2022/04/27 02:15:23;;;;;;;25.00;16.13;;;;;;;4.43;100.00;102347.84;4972263;28;20045;-75
2022/04/27 02:17:50;;;;;;;27.45;18.23;;;;;;;4.45;100.00;102352.03;4972005;28;21795;-75
2022/04/27 02:20:18;;;;;;;33.90;18.13;;;;;;;4.42;100.00;102341.66;4987201;28;20039;-75
2022/04/27 02:22:44;;;;;;;26.10;19.75;;;;;;;4.37;100.00;102348.38;4956434;28;20141;-75
2022/04/27 02:25:09;;;;;;;33.55;20.40;;;;;;;4.34;100.00;102352.16;4986425;28;20047;-75
2022/04/27 02:27:35;;;;;;;34.33;19.27;;;;;;;4.29;100.00;102349.91;4959670;28;20644;-74
2022/04/27 02:30:02;;;;;;;30.45;19.90;;;;;;;4.29;100.00;102346.41;4971199;28;20038;-75
2022/04/27 02:32:27;;;;;;;27.48;19.00;;;;;;;4.34;100.00;102349.50;4986386;28;20049;-75
2022/04/27 02:34:53;;;;;;;32.78;20.55;;;;;;;4.30;100.00;102350.75;4971288;28;20622;-75
2022/04/27 02:37:18;;;;;;;30.63;19.13;;;;;;;4.31;100.00;102360.44;4972711;28;20049;-75
2022/04/27 02:39:44;;;;;;;30.85;19.83;;;;;;;4.32;100.00;102359.47;4955505;28;20110;-75
2022/04/27 02:42:09;;;;;;;32.80;20.40;;;;;;;4.31;100.00;102365.75;4991361;28;20041;-75
2022/04/27 02:44:34;;;;;;;27.33;19.83;;;;;;;4.27;100.00;102364.34;4971567;28;20081;-75
2022/04/27 02:47:00;;;;;;;29.85;19.42;;;;;;;4.29;100.00;102367.75;4989559;28;20195;-75
2022/04/27 02:52:09;;;;;;;33.50;19.75;;;;;;;4.27;100.00;102359.84;4985309;28;22276;-75
2022/04/27 02:54:35;;;;;;;33.90;20.77;;;;;;;4.27;100.00;102364.34;4992118;28;20037;-75
2022/04/27 02:57:01;;;;;;;28.52;18.35;;;;;;;4.28;100.00;102366.03;4974692;28;20139;-75
2022/04/27 02:59:26;;;;;;;26.90;19.45;;;;;;;4.30;100.00;102369.41;4971991;28;20056;-76
2022/04/27 03:01:52;;;;;;;31.52;19.58;;;;;;;4.29;100.00;102365.06;4976998;28;20126;-74
2022/04/27 03:04:17;;;;;;;31.63;19.58;;;;;;;4.29;100.00;102363.25;4969796;28;20086;-75
2022/04/27 03:06:43;;;;;;;29.45;19.90;;;;;;;4.31;100.00;102366.59;4972704;28;20057;-74
2022/04/27 03:09:08;;;;;;;28.08;19.95;;;;;;;4.32;100.00;102375.47;4974180;28;20068;-74
2022/04/27 03:11:34;;;;;;;29.88;21.33;;;;;;;4.35;100.00;102371.66;4989032;28;20029;-75
2022/04/27 03:13:59;;;;;;;31.98;20.58;;;;;;;4.37;100.00;102367.06;4975523;28;20834;-75
2022/04/27 03:16:24;;;;;;;33.67;21.63;;;;;;;4.37;100.00;102378.56;4990829;28;20419;-75
2022/04/27 03:18:50;;;;;;;32.65;20.83;;;;;;;4.40;100.00;102364.97;4975587;28;20048;-75
2022/04/27 03:21:15;;;;;;;32.92;20.70;;;;;;;4.43;100.00;102370.03;4973301;28;20040;-75
2022/04/27 03:23:41;;;;;;;31.98;19.83;;;;;;;4.47;100.00;102366.13;4971607;28;20064;-74
2022/04/27 03:26:06;;;;;;;36.53;20.77;;;;;;;4.50;100.00;102368.50;4976254;28;20701;-75
2022/04/27 03:28:32;;;;;;;31.98;21.90;;;;;;;4.52;100.00;102373.69;4963030;28;20036;-74
2022/04/27 03:30:57;;;;;;;34.85;21.45;;;;;;;4.58;100.00;102372.31;4954348;28;20069;-75
2022/04/27 03:33:23;;;;;;;31.08;21.80;;;;;;;4.61;100.00;102367.56;4977342;28;20029;-75
2022/04/27 03:35:48;;;;;;;28.95;20.55;;;;;;;4.63;100.00;102370.06;4962946;28;20063;-77
2022/04/27 03:38:15;;;;;;;28.83;20.00;;;;;;;4.67;100.00;102371.50;4972940;28;20527;-75
2022/04/27 03:40:42;;;;;;;33.45;20.35;;;;;;;4.70;100.00;102368.56;4955417;28;20074;-75
2022/04/27 03:43:08;;;;;;;28.88;20.67;;;;;;;4.73;100.00;102365.59;4956663;28;20038;-75
2022/04/27 03:45:34;;;;;;;36.45;19.95;;;;;;;4.69;100.00;102373.06;4972809;28;20053;-75
2022/04/27 03:48:00;;;;;;;38.95;20.75;;;;;;;4.70;100.00;102374.75;4988360;28;20139;-76
2022/04/27 03:50:25;;;;;;;34.58;21.08;;;;;;;4.77;100.00;102378.56;4954102;28;20422;-74
2022/04/27 03:52:51;;;;;;;35.10;21.35;;;;;;;4.81;100.00;102378.25;4963458;28;20049;-75
2022/04/27 03:55:17;;;;;;;35.70;22.05;;;;;;;4.81;100.00;102371.13;4955219;28;20119;-74
2022/04/27 03:57:42;;;;;;;32.20;20.45;;;;;;;4.88;100.00;102380.28;4980680;28;20116;-74
2022/04/27 04:00:09;;;;;;;27.77;19.00;;;;;;;4.91;100.00;102384.47;4955066;28;20077;-74
2022/04/27 04:02:36;;;;;;;30.02;19.23;;;;;;;4.94;100.00;102390.38;4968782;28;20147;-75
2022/04/27 04:05:01;;;;;;;34.25;20.02;;;;;;;4.97;100.00;102373.25;4987743;28;20032;-74
2022/04/27 04:07:27;;;;;;;33.78;20.63;;;;;;;5.00;100.00;102379.16;4959933;28;20144;-74
2022/04/27 04:09:52;;;;;;;32.67;18.38;;;;;;;5.07;100.00;102383.94;4954192;28;20049;-74
2022/04/27 04:12:17;;;;;;;28.85;18.23;;;;;;;5.03;100.00;102388.72;4957397;28;22432;-74
2022/04/27 04:14:43;;;;;;;30.50;18.33;;;;;;;5.03;100.00;102389.56;4957955;28;20060;-74
2022/04/27 04:17:08;;;;;;;31.92;20.17;;;;;;;5.04;100.00;102382.38;4988172;28;20459;-74
2022/04/27 04:19:34;;;;;;;31.08;18.90;;;;;;;5.13;100.00;102388.75;4957151;28;20092;-75
2022/04/27 04:21:59;;;;;;;27.13;18.65;;;;;;;5.11;100.00;102396.03;4989615;28;20037;-74
2022/04/27 04:24:25;;;;;;;28.63;18.13;;;;;;;5.16;100.00;102394.66;4973353;28;20049;-74
2022/04/27 04:29:35;;;;;;;25.45;17.23;;;;;;;5.14;100.00;102401.94;4976527;28;20072;-75
2022/04/27 04:32:00;;;;;;;25.23;18.30;;;;;;;5.17;100.00;102409.69;4976263;28;21097;-75
2022/04/27 04:34:26;;;;;;;27.63;18.30;;;;;;;5.24;100.00;102409.97;4991848;28;20048;-75
2022/04/27 04:36:51;;;;;;;26.90;17.88;;;;;;;5.29;100.00;102410.38;4962643;28;20614;-74
2022/04/27 04:39:17;;;;;;;29.27;18.92;;;;;;;5.31;100.00;102418.28;4992142;28;20033;-74
2022/04/27 04:41:42;;;;;;;26.38;18.88;;;;;;;5.37;100.00;102417.69;4976923;28;20056;-74
2022/04/27 04:44:08;;;;;;;30.80;18.70;;;;;;;5.41;100.00;102417.31;4984726;28;20055;-75
2022/04/27 04:46:33;;;;;;;29.63;19.45;;;;;;;5.47;100.00;102424.72;4983500;28;21047;-75
2022/04/27 04:48:58;;;;;;;28.02;18.30;;;;;;;5.50;100.00;102421.78;4993535;28;20052;-75
2022/04/27 04:51:24;;;;;;;24.77;17.52;;;;;;;5.52;100.00;102418.16;4979105;28;20025;-75
2022/04/27 04:53:49;;;;;;;29.63;19.27;;;;;;;5.56;100.00;102422.22;4988867;28;20139;-74
2022/04/27 04:56:15;;;;;;;25.70;18.58;;;;;;;5.65;100.00;102429.38;4982818;28;20702;-74
2022/04/27 04:58:40;;;;;;;26.17;18.17;;;;;;;5.62;100.00;102432.34;4981602;28;20155;-74
2022/04/27 05:01:06;;;;;;;30.63;18.58;;;;;;;5.70;100.00;102438.66;4973891;28;26019;-75
2022/04/27 05:03:36;;;;;;;26.85;18.48;;;;;;;5.77;100.00;102443.47;5001692;28;20049;-75
2022/04/27 05:06:02;;;;;;;27.70;20.13;;;;;;;5.83;100.00;102449.09;5002420;28;20458;-75
2022/04/27 05:08:27;;;;;;;26.77;18.88;;;;;;;5.89;100.00;102448.50;4996692;28;20057;-76
2022/04/27 05:10:53;;;;;;;26.70;20.35;;;;;;;5.91;100.00;102441.19;5015712;28;22477;-75
2022/04/27 05:13:18;;;;;;;28.70;20.52;;;;;;;5.97;100.00;102451.34;4980058;28;20863;-75
2022/04/27 05:15:44;;;;;;;32.60;19.75;;;;;;;6.03;100.00;102452.59;4995436;28;20119;-76
2022/04/27 05:18:09;;;;;;;30.60;20.95;;;;;;;6.09;100.00;102453.84;4990768;28;20072;-76
2022/04/27 05:20:37;;;;;;;29.08;19.52;;;;;;;6.16;100.00;102458.47;4992238;28;20412;-76
2022/04/27 05:23:02;;;;;;;30.25;18.60;;;;;;;6.20;100.00;102459.03;4999343;28;20115;-76
2022/04/27 05:25:28;;;;;;;28.02;18.52;;;;;;;6.29;100.00;102465.38;4975483;28;20057;-74
2022/04/27 05:27:53;;;;;;;28.58;19.70;;;;;;;6.42;100.00;102465.88;4992342;28;20092;-75
2022/04/27 05:33:06;;;;;;;26.50;19.20;;;;;;;6.62;100.00;102475.53;4961191;28;20043;-74
2022/04/27 05:35:39;;;;;;;24.95;16.80;;;;;;;6.70;100.00;102474.78;4990020;28;20048;-74
2022/04/27 05:38:05;;;;;;;28.83;20.65;;;;;;;6.86;100.00;102483.03;4966372;28;22137;-74
2022/04/27 05:40:30;;;;;;;27.30;18.73;;;;;;;6.97;100.00;102483.84;4980514;28;20114;-75
2022/04/27 05:42:56;;;;;;;22.83;17.70;;;;;;;6.99;100.00;102485.38;4945838;28;20057;-75
2022/04/27 05:45:21;;;;;;;23.55;16.48;;;;;;;7.07;100.00;102485.47;4987576;28;20422;-75
2022/04/27 05:47:47;;;;;;;21.45;16.58;;;;;;;7.15;100.00;102492.75;4956182;28;20052;-75
2022/04/27 05:50:12;;;;;;;21.55;15.40;;;;;;;7.34;100.00;102487.28;4992250;28;20075;-75
2022/04/27 05:52:49;;;;;;;24.67;14.05;;;;;;;7.37;100.00;102497.72;4972646;28;20060;-75
2022/04/27 05:55:15;;;;;;;22.67;14.10;;;;;;;7.56;100.00;102494.03;4978777;28;20049;-75
2022/04/27 05:57:40;;;;;;;20.13;12.25;;;;;;;7.67;100.00;102495.66;4978719;28;20167;-75
2022/04/27 06:00:06;;;;;;;16.60;12.43;;;;;;;7.82;100.00;102502.16;4961612;28;21206;-75
2022/04/27 06:02:32;;;;;;;24.10;13.50;;;;;;;8.08;100.00;102496.00;4962026;28;20041;-76
2022/04/27 06:04:57;;;;;;;18.95;13.50;;;;;;;8.27;100.00;102495.81;4972399;28;20072;-75
2022/04/27 06:07:22;;;;;;;20.92;13.18;;;;;;;8.33;100.00;102502.41;4975831;28;20063;-75
2022/04/27 06:09:48;;;;;;;16.55;10.52;;;;;;;8.48;100.00;102510.75;4945195;28;20057;-75
2022/04/27 06:12:13;;;;;;;17.80;9.65;;;;;;;8.57;100.00;102507.13;4973399;28;20044;-73
2022/04/27 06:14:39;;;;;;;14.38;7.20;;;;;;;8.71;100.00;102514.59;4966762;28;20033;-73
2022/04/27 06:17:05;;;;;;;13.88;6.95;;;;;;;8.78;100.00;102520.16;4989215;28;20064;-74
2022/04/27 06:19:30;;;;;;;11.02;6.20;;;;;;;8.90;100.00;102515.34;4977873;28;20425;-74
2022/04/27 06:21:56;;;;;;;9.35;5.20;;;;;;;9.05;100.00;102521.78;4973640;28;20129;-74
2022/04/27 06:24:21;;;;;;;9.05;4.85;;;;;;;9.15;100.00;102522.50;4974376;28;20029;-76
2022/04/27 06:26:47;;;;;;;10.15;5.05;;;;;;;9.24;100.00;102526.06;4957423;28;20821;-74
2022/04/27 06:29:12;;;;;;;12.00;4.97;;;;;;;9.26;100.00;102527.56;4971095;28;20377;-74
2022/04/27 06:31:40;;;;;;;10.93;4.78;;;;;;;9.33;100.00;102531.28;4974072;28;20075;-74
2022/04/27 06:34:06;;;;;;;12.48;5.00;;;;;;;9.38;100.00;102528.13;4976327;28;20045;-73
2022/04/27 06:36:31;;;;;;;11.20;5.32;;;;;;;9.43;100.00;102530.31;4971083;28;20067;-73
2022/04/27 06:38:57;;;;;;;6.15;4.50;;;;;;;9.50;100.00;102537.56;4974306;28;20063;-74
2022/04/27 06:41:22;;;;;;;11.60;4.72;;;;;;;9.64;100.00;102538.78;4971212;28;20028;-75
2022/04/27 06:43:48;;;;;;;10.63;4.20;;;;;;;9.72;100.00;102546.88;4974517;28;20061;-75
2022/04/27 06:46:13;;;;;;;7.50;3.55;;;;;;;9.73;100.00;102545.88;4990923;28;20036;-74
2022/04/27 06:48:39;;;;;;;5.97;2.50;;;;;;;9.79;100.00;102552.41;4944602;28;20076;-74
2022/04/27 06:51:04;;;;;;;7.90;2.55;;;;;;;9.81;100.00;102545.03;4989566;28;20068;-74
2022/04/27 06:53:29;;;;;;;8.60;2.85;;;;;;;9.86;100.00;102547.22;4942821;28;20055;-75
2022/04/27 06:55:55;;;;;;;7.93;2.33;;;;;;;9.93;98.81;102549.09;4970819;28;20041;-75
2022/04/27 06:58:20;;;;;;;4.72;2.80;;;;;;;9.99;95.30;102555.66;4985347;28;20206;-74
2022/04/27 07:00:46;;;;;;;9.90;2.92;;;;;;;10.00;95.01;102565.41;4959372;28;20095;-74
2022/04/27 07:03:11;;;;;;;5.18;2.42;;;;;;;10.11;93.21;102559.69;4956345;28;20151;-74
2022/04/27 07:05:37;;;;;;;5.57;2.35;;;;;;;10.12;78.80;102566.75;4953505;28;20064;-73
2022/04/27 07:08:04;;;;;;;11.13;2.25;;;;;;;10.12;77.60;102565.94;4989372;28;20050;-73
2022/04/27 07:10:36;;;;;;;5.50;1.65;;;;;;;10.10;73.92;102568.78;4940466;28;20068;-73
2022/04/27 07:13:05;;;;;;;6.05;2.08;;;;;;;10.05;71.97;102568.44;4986592;28;20040;-75
2022/04/27 07:15:30;;;;;;;4.03;1.70;;;;;;;10.03;69.56;102565.91;4953900;28;20033;-75
2022/04/27 07:17:56;;;;;;;6.60;2.10;;;;;;;10.03;72.13;102571.28;4976255;28;20060;-75
2022/04/27 07:20:21;;;;;;;4.95;2.10;;;;;;;10.06;68.60;102577.34;4983571;28;20064;-75
2022/04/27 07:22:46;;;;;;;5.70;2.63;;;;;;;10.22;66.48;102574.69;4967571;28;20140;-75
2022/04/27 07:25:14;;;;;;;6.25;2.60;;;;;;;10.27;65.73;102581.25;4976358;28;20126;-75
2022/04/27 07:27:39;;;;;;;7.47;2.10;;;;;;;10.27;66.20;102572.34;4957595;28;20516;-74
2022/04/27 07:30:06;;;;;;;8.90;1.95;;;;;;;10.35;63.52;102585.81;4975729;28;20127;-75
2022/04/27 07:32:31;;;;;;;8.50;2.35;;;;;;;10.33;62.43;102581.63;4970578;28;20464;-75
2022/04/27 07:34:56;;;;;;;6.13;2.20;;;;;;;10.31;62.65;102583.63;4970552;28;20037;-76
2022/04/27 07:37:22;;;;;;;4.60;1.80;;;;;;;10.42;62.81;102585.97;4940877;28;20034;-75
2022/04/27 07:39:47;;;;;;;12.38;2.63;;;;;;;10.55;61.75;102583.59;4970267;28;20056;-75
2022/04/27 07:42:13;;;;;;;8.63;2.15;;;;;;;10.61;61.70;102591.03;4988725;28;24140;-75
2022/04/27 07:44:38;;;;;;;4.32;2.00;;;;;;;10.77;61.78;102579.34;4958819;28;20085;-75
2022/04/27 07:47:04;;;;;;;5.13;1.98;;;;;;;11.01;57.71;102583.84;4985951;28;20037;-75
2022/04/27 07:49:29;;;;;;;4.93;2.05;;;;;;;11.12;60.13;102583.47;4968127;28;20079;-75
2022/04/27 07:51:55;;;;;;;7.00;2.20;;;;;;;11.28;57.90;102589.84;4972234;28;20033;-75
2022/04/27 07:54:21;;;;;;;8.27;2.30;;;;;;;11.52;55.19;102594.28;4945225;28;20606;-74
2022/04/27 07:56:46;;;;;;;6.55;1.77;;;;;;;11.59;55.50;102606.06;4967306;28;20036;-75
2022/04/27 07:59:12;;;;;;;7.88;2.17;;;;;;;11.58;55.33;102599.81;4987637;28;20051;-75
2022/04/27 08:01:37;;;;;;;6.28;1.83;;;;;;;11.71;55.14;102607.31;4972055;28;20064;-76
2022/04/27 08:04:02;;;;;;;7.63;2.33;;;;;;;11.73;54.76;102608.00;4987477;28;20045;-75
2022/04/27 08:06:28;;;;;;;5.15;1.95;;;;;;;11.77;54.42;102613.88;4969433;28;20073;-75
2022/04/27 08:08:53;;;;;;;13.90;2.03;;;;;;;11.78;55.01;102618.25;4974682;28;20144;-75
2022/04/27 08:11:19;;;;;;;8.48;2.00;;;;;;;11.91;54.10;102611.28;4968926;28;20500;-75
2022/04/27 08:13:45;;;;;;;4.97;1.80;;;;;;;12.09;52.02;102613.69;4973540;28;20045;-75
2022/04/27 08:16:11;;;;;;;4.93;2.28;;;;;;;12.25;52.00;102622.69;4971072;28;20057;-75
2022/04/27 08:18:38;;;;;;;4.97;1.98;;;;;;;12.17;52.29;102627.13;4941156;28;21073;-75
2022/04/27 08:21:13;;;;;;;4.82;1.90;;;;;;;12.31;51.34;102628.22;4972099;28;20060;-75
2022/04/27 08:23:40;;;;;;;5.05;1.88;;;;;;;12.25;52.82;102622.69;4934840;28;20052;-76
2022/04/27 08:26:07;;;;;;;5.30;2.00;;;;;;;12.30;51.61;102628.41;4986101;28;20995;-76
2022/04/27 08:28:33;;;;;;;6.00;1.90;;;;;;;12.33;50.93;102633.47;4972052;28;20068;-75
2022/04/27 08:30:59;;;;;;;4.63;1.55;;;;;;;12.27;51.01;102631.47;4984348;28;20059;-75
2022/04/27 08:33:24;;;;;;;7.05;2.30;;;;;;;12.34;51.53;102635.13;4952566;28;20232;-75
2022/04/27 08:35:50;;;;;;;6.47;2.10;;;;;;;12.40;51.47;102637.13;4986485;28;20144;-75
2022/04/27 08:38:16;;;;;;;4.47;1.65;;;;;;;12.66;51.10;102637.56;4984181;28;20025;-75
2022/04/27 08:40:44;;;;;;;10.82;2.13;;;;;;;12.66;51.32;102634.00;4970507;28;20136;-75
2022/04/27 08:43:10;;;;;;;8.73;2.90;;;;;;;12.77;49.73;102635.44;4970656;28;20029;-75
2022/04/27 08:45:36;;;;;;;10.20;3.55;;;;;;;12.75;50.54;102640.22;4967895;28;20057;-75
2022/04/27 08:48:02;;;;;;;9.13;3.15;;;;;;;12.76;50.20;102641.88;4971013;28;20040;-75
2022/04/27 08:50:28;;;;;;;13.85;4.40;;;;;;;12.73;49.36;102648.47;4954265;28;20194;-75
2022/04/27 08:52:55;;;;;;;5.15;1.65;;;;;;;12.60;48.88;102648.25;4974546;28;20041;-76
2022/04/27 08:55:21;;;;;;;7.53;1.92;;;;;;;12.50;49.76;102653.09;4972519;28;20477;-75
2022/04/27 08:57:48;;;;;;;4.75;2.10;;;;;;;12.47;50.08;102651.59;4956135;28;20025;-75
2022/04/27 09:00:15;;;;;;;4.55;1.80;;;;;;;12.29;50.35;102653.78;4984805;28;20056;-76
2022/04/27 09:02:42;;;;;;;6.53;1.95;;;;;;;12.24;50.37;102654.28;4953369;28;20112;-75
2022/04/27 09:05:10;;;;;;;40.75;11.98;;;;;;;12.37;49.95;102659.09;4985389;28;20041;-75
2022/04/27 09:07:56;;;;;;;12.93;4.65;;;;;;;12.58;49.47;102656.56;4971011;28;20064;-75
2022/04/27 09:10:24;;;;;;;8.40;2.55;;;;;;;12.57;50.26;102654.06;4984056;28;20648;-75
2022/04/27 09:12:51;;;;;;;5.90;1.80;;;;;;;12.51;49.46;102655.59;4918666;28;20045;-75
2022/04/27 09:15:19;;;;;;;7.68;2.05;;;;;;;12.45;49.71;102659.03;4969837;28;21120;-75
2022/04/27 09:20:50;;;;;;;8.00;1.85;;;;;;;12.31;50.29;102663.34;4970772;28;20028;-75
2022/04/27 09:23:37;;;;;;;7.93;2.05;;;;;;;12.46;49.75;102663.44;4956718;28;20072;-76
2022/04/27 09:26:22;;;;;;;6.20;1.83;;;;;;;12.36;50.91;102662.84;4973229;28;21142;-75
2022/04/27 09:28:53;;;;;;;7.20;2.33;;;;;;;12.38;50.33;102658.91;4971019;28;27677;-75
2022/04/27 09:31:35;;;;;;;7.53;2.28;;;;;;;12.53;50.14;102660.81;4985833;28;20029;-75
2022/04/27 09:34:02;;;;;;;9.95;2.33;;;;;;;12.60;50.05;102653.66;4978448;28;20065;-75
2022/04/27 09:36:27;;;;;;;6.97;1.83;;;;;;;12.70;49.21;102658.81;4960232;28;20096;-75
2022/04/27 09:38:55;;;;;;;5.90;1.83;;;;;;;12.72;48.95;102659.50;4951109;28;20148;-75
2022/04/27 09:41:37;;;;;;;8.55;2.05;;;;;;;12.89;50.33;102666.44;4971786;28;20216;-75
2022/04/27 09:44:03;;;;;;;5.90;1.52;;;;;;;13.02;49.37;102663.94;4972176;28;22811;-74
2022/04/27 09:46:28;;;;;;;5.40;2.00;;;;;;;13.10;49.66;102668.44;4934175;28;20048;-74
2022/04/27 09:49:11;;;;;;;6.07;1.80;;;;;;;13.25;49.16;102657.63;4967396;28;20864;-74
2022/04/27 09:51:48;;;;;;;4.53;1.90;;;;;;;13.42;48.49;102664.53;4964590;28;20136;-74
2022/04/27 09:54:30;;;;;;;5.40;1.83;;;;;;;13.33;49.77;102665.66;4979460;28;20032;-74
2022/04/27 09:57:01;;;;;;;10.25;2.25;;;;;;;13.39;48.56;102664.06;4950192;28;20057;-75
2022/04/27 09:59:30;;;;;;;5.60;1.70;;;;;;;13.60;48.94;102664.16;4966599;28;20024;-74
2022/04/27 10:02:09;;;;;;;8.13;1.90;;;;;;;13.90;47.58;102662.25;4950535;28;20052;-74
2022/04/27 10:04:36;;;;;;;12.15;2.45;;;;;;;13.94;47.61;102658.13;4981931;28;20059;-74
2022/04/27 10:07:07;;;;;;;11.95;2.40;;;;;;;13.89;47.69;102665.13;4965315;28;20061;-76
2022/04/27 10:09:33;;;;;;;8.60;2.08;;;;;;;14.02;48.92;102665.28;4933053;28;20061;-73
2022/04/27 10:12:03;;;;;;;8.95;2.30;;;;;;;13.97;48.69;102663.16;4969652;28;20052;-74
2022/04/27 10:14:29;;;;;;;9.77;1.90;;;;;;;13.76;49.41;102676.63;4967684;28;20059;-74
2022/04/27 10:16:55;;;;;;;7.22;2.25;;;;;;;13.54;49.24;102665.72;4969888;28;20056;-74
2022/04/27 10:19:21;;;;;;;10.02;2.47;;;;;;;13.44;50.47;102667.06;4955851;28;20047;-73
2022/04/27 10:21:58;;;;;;;11.50;2.47;;;;;;;13.27;50.69;102666.44;4970580;28;20171;-75
2022/04/27 10:24:41;;;;;;;11.32;2.78;;;;;;;13.07;51.56;102669.63;4969794;28;20716;-75
2022/04/27 10:27:17;;;;;;;11.73;2.60;;;;;;;12.95;51.39;102667.53;4983336;28;20033;-74
2022/04/27 10:29:47;;;;;;;10.10;2.38;;;;;;;12.77;52.38;102670.59;4970362;28;20066;-74
2022/04/27 10:32:12;;;;;;;13.80;2.75;;;;;;;12.51;53.66;102666.41;4970555;28;20037;-74
2022/04/27 10:34:38;;;;;;;11.57;2.50;;;;;;;12.14;54.39;102668.06;4983800;28;20399;-75
2022/04/27 10:37:03;;;;;;;13.68;2.65;;;;;;;12.08;55.26;102671.47;4971086;28;20072;-74
2022/04/27 10:39:32;;;;;;;10.02;2.85;;;;;;;11.99;57.00;102675.22;4971669;28;20036;-74
2022/04/27 10:42:04;;;;;;;13.02;2.92;;;;;;;11.89;57.86;102667.31;4966938;28;20149;-74
2022/04/27 10:44:51;;;;;;;15.43;3.25;;;;;;;11.79;59.61;102674.78;4982808;28;20056;-75
2022/04/27 10:47:21;;;;;;;7.13;2.10;;;;;;;11.79;61.38;102677.47;4967854;28;20041;-76
2022/04/27 10:49:49;;;;;;;15.05;3.38;;;;;;;11.84;60.61;102674.28;4982977;28;20033;-74
2022/04/27 10:52:15;;;;;;;11.43;2.38;;;;;;;11.76;62.25;102674.28;4965553;28;20079;-75
2022/04/27 10:54:41;;;;;;;17.67;3.03;;;;;;;11.76;61.37;102675.16;4985077;28;20033;-75
2022/04/27 10:57:29;;;;;;;14.82;3.08;;;;;;;11.78;61.03;102683.06;4975255;28;21182;-74
2022/04/27 10:59:59;;;;;;;14.68;2.95;;;;;;;11.64;62.44;102677.38;4980227;28;20380;-75
2022/04/27 11:02:38;;;;;;;13.02;3.20;;;;;;;11.79;63.85;102687.44;4968878;28;20033;-73
2022/04/27 11:05:18;;;;;;;15.77;3.58;;;;;;;11.77;65.77;102678.69;4979521;28;20053;-75
2022/04/27 11:08:06;;;;;;;12.32;2.90;;;;;;;11.79;67.10;102682.03;4989811;28;23625;-75
2022/04/27 11:10:31;;;;;;;13.88;3.22;;;;;;;11.88;68.62;102670.22;4961808;28;20346;-75
2022/04/27 11:12:57;;;;;;;15.93;3.38;;;;;;;11.92;69.19;102679.66;4970605;28;20041;-75
2022/04/27 11:15:24;;;;;;;15.40;3.05;;;;;;;11.80;68.57;102679.19;4974315;28;20103;-76
2022/04/27 11:18:01;;;;;;;13.75;3.15;;;;;;;11.80;73.86;102687.28;4973712;28;20099;-74
2022/04/27 11:20:27;;;;;;;17.00;2.95;;;;;;;11.77;72.10;102684.94;4938145;28;20599;-74
2022/04/27 11:22:54;;;;;;;13.75;3.67;;;;;;;11.89;70.38;102693.50;4971477;28;20117;-75
2022/04/27 11:25:27;;;;;;;16.50;3.83;;;;;;;12.07;69.95;102690.53;4972631;28;20140;-76
2022/04/27 11:27:53;;;;;;;12.27;3.25;;;;;;;12.01;72.71;102686.69;4969133;28;20106;-76